sensor_id;sensor_type;location;lat;lon;timestamp;temperature;humidity
18694;DHT22;9477;51.414;10.362;2023-04-25T00:01:36;9.70;70.30
18694;DHT22;9477;51.414;10.362;2023-04-25T00:03:39;9.80;70.00
18694;DHT22;9477;51.414;10.362;2023-04-25T00:05:43;9.70;69.90
18694;DHT22;9477;51.414;10.362;2023-04-25T00:07:46;9.60;69.90
18694;DHT22;9477;51.414;10.362;2023-04-25T00:09:49;9.50;70.30
18694;DHT22;9477;51.414;10.362;2023-04-25T00:11:54;9.40;70.60
18694;DHT22;9477;51.414;10.362;2023-04-25T00:13:57;9.30;70.80
18694;DHT22;9477;51.414;10.362;2023-04-25T00:16:05;9.40;70.90
18694;DHT22;9477;51.414;10.362;2023-04-25T00:18:08;9.50;70.90
18694;DHT22;9477;51.414;10.362;2023-04-25T00:20:12;9.50;70.90
18694;DHT22;9477;51.414;10.362;2023-04-25T00:22:14;9.50;70.70
18694;DHT22;9477;51.414;10.362;2023-04-25T00:24:17;9.60;70.70
18694;DHT22;9477;51.414;10.362;2023-04-25T00:26:21;9.70;70.40
18694;DHT22;9477;51.414;10.362;2023-04-25T00:28:25;9.60;70.30
18694;DHT22;9477;51.414;10.362;2023-04-25T00:30:27;9.60;70.40
18694;DHT22;9477;51.414;10.362;2023-04-25T00:32:30;9.50;70.50
18694;DHT22;9477;51.414;10.362;2023-04-25T00:34:33;9.60;70.60
18694;DHT22;9477;51.414;10.362;2023-04-25T00:36:37;9.60;70.70
18694;DHT22;9477;51.414;10.362;2023-04-25T00:38:40;9.60;70.80
18694;DHT22;9477;51.414;10.362;2023-04-25T00:40:42;9.50;70.60
18694;DHT22;9477;51.414;10.362;2023-04-25T00:42:48;9.70;70.50
18694;DHT22;9477;51.414;10.362;2023-04-25T00:44:53;9.70;70.70
18694;DHT22;9477;51.414;10.362;2023-04-25T00:46:56;9.90;70.70
18694;DHT22;9477;51.414;10.362;2023-04-25T00:48:59;9.80;70.40
18694;DHT22;9477;51.414;10.362;2023-04-25T00:51:02;9.90;70.50
18694;DHT22;9477;51.414;10.362;2023-04-25T00:53:05;10.00;69.40
18694;DHT22;9477;51.414;10.362;2023-04-25T00:55:10;9.80;70.40
18694;DHT22;9477;51.414;10.362;2023-04-25T00:57:13;9.90;70.80
18694;DHT22;9477;51.414;10.362;2023-04-25T00:59:17;9.90;70.70
18694;DHT22;9477;51.414;10.362;2023-04-25T01:01:22;9.90;70.70
18694;DHT22;9477;51.414;10.362;2023-04-25T01:03:25;9.70;70.70
18694;DHT22;9477;51.414;10.362;2023-04-25T01:05:31;9.70;71.20
18694;DHT22;9477;51.414;10.362;2023-04-25T01:07:34;9.70;71.20
18694;DHT22;9477;51.414;10.362;2023-04-25T01:09:37;9.60;71.40
18694;DHT22;9477;51.414;10.362;2023-04-25T01:11:40;9.60;71.30
18694;DHT22;9477;51.414;10.362;2023-04-25T01:13:43;9.70;71.50
18694;DHT22;9477;51.414;10.362;2023-04-25T01:15:46;9.50;71.40
18694;DHT22;9477;51.414;10.362;2023-04-25T01:17:51;9.80;71.70
18694;DHT22;9477;51.414;10.362;2023-04-25T01:19:54;10.00;70.20
18694;DHT22;9477;51.414;10.362;2023-04-25T01:21:59;10.10;69.80
18694;DHT22;9477;51.414;10.362;2023-04-25T01:24:02;10.20;69.60
18694;DHT22;9477;51.414;10.362;2023-04-25T01:26:06;10.20;69.50
18694;DHT22;9477;51.414;10.362;2023-04-25T01:28:09;10.10;69.20
18694;DHT22;9477;51.414;10.362;2023-04-25T01:30:12;10.00;69.40
18694;DHT22;9477;51.414;10.362;2023-04-25T01:32:16;9.80;70.60
18694;DHT22;9477;51.414;10.362;2023-04-25T01:34:20;9.50;71.30
18694;DHT22;9477;51.414;10.362;2023-04-25T01:36:23;9.20;71.80
18694;DHT22;9477;51.414;10.362;2023-04-25T01:38:27;9.30;72.10
18694;DHT22;9477;51.414;10.362;2023-04-25T01:40:30;9.10;71.90
18694;DHT22;9477;51.414;10.362;2023-04-25T01:42:36;8.80;72.20
18694;DHT22;9477;51.414;10.362;2023-04-25T01:44:39;9.00;72.60
18694;DHT22;9477;51.414;10.362;2023-04-25T01:46:42;9.00;72.60
18694;DHT22;9477;51.414;10.362;2023-04-25T01:48:45;8.60;72.60
18694;DHT22;9477;51.414;10.362;2023-04-25T01:50:48;8.80;73.10
18694;DHT22;9477;51.414;10.362;2023-04-25T01:52:51;8.80;73.20
18694;DHT22;9477;51.414;10.362;2023-04-25T01:54:57;8.90;73.20
18694;DHT22;9477;51.414;10.362;2023-04-25T01:57:01;8.80;73.40
18694;DHT22;9477;51.414;10.362;2023-04-25T01:59:05;8.70;73.50
18694;DHT22;9477;51.414;10.362;2023-04-25T02:01:07;8.70;73.50
18694;DHT22;9477;51.414;10.362;2023-04-25T02:03:10;8.90;73.40
18694;DHT22;9477;51.414;10.362;2023-04-25T02:05:14;8.50;73.00
18694;DHT22;9477;51.414;10.362;2023-04-25T02:07:17;8.70;73.50
18694;DHT22;9477;51.414;10.362;2023-04-25T02:09:20;8.70;73.60
18694;DHT22;9477;51.414;10.362;2023-04-25T02:11:26;8.50;73.80
18694;DHT22;9477;51.414;10.362;2023-04-25T02:13:29;8.40;73.90
18694;DHT22;9477;51.414;10.362;2023-04-25T02:15:32;8.50;74.20
18694;DHT22;9477;51.414;10.362;2023-04-25T02:17:35;8.60;74.80
18694;DHT22;9477;51.414;10.362;2023-04-25T02:19:38;8.70;73.90
18694;DHT22;9477;51.414;10.362;2023-04-25T02:21:41;8.60;73.30
18694;DHT22;9477;51.414;10.362;2023-04-25T02:23:44;8.60;73.60
18694;DHT22;9477;51.414;10.362;2023-04-25T02:25:51;8.50;74.20
18694;DHT22;9477;51.414;10.362;2023-04-25T02:27:55;8.80;74.90
18694;DHT22;9477;51.414;10.362;2023-04-25T02:30:00;8.70;73.90
18694;DHT22;9477;51.414;10.362;2023-04-25T02:32:03;8.80;74.00
18694;DHT22;9477;51.414;10.362;2023-04-25T02:34:06;8.70;73.90
18694;DHT22;9477;51.414;10.362;2023-04-25T02:36:09;8.90;74.00
18694;DHT22;9477;51.414;10.362;2023-04-25T02:38:12;9.00;73.70
18694;DHT22;9477;51.414;10.362;2023-04-25T02:40:18;9.00;74.30
18694;DHT22;9477;51.414;10.362;2023-04-25T02:42:21;8.70;74.20
18694;DHT22;9477;51.414;10.362;2023-04-25T02:44:25;8.70;73.70
18694;DHT22;9477;51.414;10.362;2023-04-25T02:46:28;8.70;73.80
18694;DHT22;9477;51.414;10.362;2023-04-25T02:48:40;8.80;73.90
18694;DHT22;9477;51.414;10.362;2023-04-25T02:50:43;8.50;73.70
18694;DHT22;9477;51.414;10.362;2023-04-25T02:52:47;8.60;73.90
18694;DHT22;9477;51.414;10.362;2023-04-25T02:54:50;8.60;74.00
18694;DHT22;9477;51.414;10.362;2023-04-25T02:56:53;8.70;74.10
18694;DHT22;9477;51.414;10.362;2023-04-25T02:58:56;8.80;73.70
18694;DHT22;9477;51.414;10.362;2023-04-25T03:01:00;8.90;73.50
18694;DHT22;9477;51.414;10.362;2023-04-25T03:03:03;8.80;73.20
18694;DHT22;9477;51.414;10.362;2023-04-25T03:05:07;8.80;73.10
18694;DHT22;9477;51.414;10.362;2023-04-25T03:07:10;8.60;73.20
18694;DHT22;9477;51.414;10.362;2023-04-25T03:09:13;8.50;73.40
18694;DHT22;9477;51.414;10.362;2023-04-25T03:11:19;8.70;73.70
18694;DHT22;9477;51.414;10.362;2023-04-25T03:13:23;8.80;73.60
18694;DHT22;9477;51.414;10.362;2023-04-25T03:15:27;8.70;73.30
18694;DHT22;9477;51.414;10.362;2023-04-25T03:17:33;8.80;73.10
18694;DHT22;9477;51.414;10.362;2023-04-25T03:19:38;8.50;73.30
18694;DHT22;9477;51.414;10.362;2023-04-25T03:21:41;8.40;73.50
18694;DHT22;9477;51.414;10.362;2023-04-25T03:23:44;8.40;73.90
18694;DHT22;9477;51.414;10.362;2023-04-25T03:25:47;8.40;74.00
18694;DHT22;9477;51.414;10.362;2023-04-25T03:27:50;8.60;74.40
18694;DHT22;9477;51.414;10.362;2023-04-25T03:29:53;8.80;74.10
18694;DHT22;9477;51.414;10.362;2023-04-25T03:31:56;9.00;73.60
18694;DHT22;9477;51.414;10.362;2023-04-25T03:34:00;8.90;72.80
18694;DHT22;9477;51.414;10.362;2023-04-25T03:36:04;9.00;73.20
18694;DHT22;9477;51.414;10.362;2023-04-25T03:38:08;9.30;73.20
18694;DHT22;9477;51.414;10.362;2023-04-25T03:40:13;9.50;72.80
18694;DHT22;9477;51.414;10.362;2023-04-25T03:42:18;9.60;72.00
18694;DHT22;9477;51.414;10.362;2023-04-25T03:44:21;9.70;71.90
18694;DHT22;9477;51.414;10.362;2023-04-25T03:46:26;9.80;71.80
18694;DHT22;9477;51.414;10.362;2023-04-25T03:48:30;9.90;71.70
18694;DHT22;9477;51.414;10.362;2023-04-25T03:50:34;9.90;71.20
18694;DHT22;9477;51.414;10.362;2023-04-25T03:52:39;9.90;70.90
18694;DHT22;9477;51.414;10.362;2023-04-25T03:54:45;10.10;69.90
18694;DHT22;9477;51.414;10.362;2023-04-25T03:56:49;10.00;69.70
18694;DHT22;9477;51.414;10.362;2023-04-25T03:58:53;9.80;70.40
18694;DHT22;9477;51.414;10.362;2023-04-25T04:00:56;9.90;70.90
18694;DHT22;9477;51.414;10.362;2023-04-25T04:03:04;10.00;70.00
18694;DHT22;9477;51.414;10.362;2023-04-25T04:05:08;9.90;70.70
18694;DHT22;9477;51.414;10.362;2023-04-25T04:07:17;9.80;70.40
18694;DHT22;9477;51.414;10.362;2023-04-25T04:09:20;9.80;70.70
18694;DHT22;9477;51.414;10.362;2023-04-25T04:11:23;9.90;71.20
18694;DHT22;9477;51.414;10.362;2023-04-25T04:13:27;10.00;70.10
18694;DHT22;9477;51.414;10.362;2023-04-25T04:15:33;10.20;70.10
18694;DHT22;9477;51.414;10.362;2023-04-25T04:17:36;10.30;69.80
18694;DHT22;9477;51.414;10.362;2023-04-25T04:19:39;10.30;69.50
18694;DHT22;9477;51.414;10.362;2023-04-25T04:21:42;10.20;69.20
18694;DHT22;9477;51.414;10.362;2023-04-25T04:23:46;9.90;70.50
18694;DHT22;9477;51.414;10.362;2023-04-25T04:25:50;9.80;70.90
18694;DHT22;9477;51.414;10.362;2023-04-25T04:27:53;9.60;71.00
18694;DHT22;9477;51.414;10.362;2023-04-25T04:29:56;9.70;71.50
18694;DHT22;9477;51.414;10.362;2023-04-25T04:32:03;9.80;71.60
18694;DHT22;9477;51.414;10.362;2023-04-25T04:34:06;9.90;71.70
18694;DHT22;9477;51.414;10.362;2023-04-25T04:36:12;9.80;71.50
18694;DHT22;9477;51.414;10.362;2023-04-25T04:38:15;9.80;71.70
18694;DHT22;9477;51.414;10.362;2023-04-25T04:40:19;9.70;71.90
18694;DHT22;9477;51.414;10.362;2023-04-25T04:42:22;9.50;72.30
18694;DHT22;9477;51.414;10.362;2023-04-25T04:44:25;9.40;72.80
18694;DHT22;9477;51.414;10.362;2023-04-25T04:46:28;9.30;73.30
18694;DHT22;9477;51.414;10.362;2023-04-25T04:48:32;9.10;73.90
18694;DHT22;9477;51.414;10.362;2023-04-25T04:50:35;9.20;74.70
18694;DHT22;9477;51.414;10.362;2023-04-25T04:52:39;9.20;74.20
18694;DHT22;9477;51.414;10.362;2023-04-25T04:54:42;9.30;74.20
18694;DHT22;9477;51.414;10.362;2023-04-25T04:56:46;9.30;74.20
18694;DHT22;9477;51.414;10.362;2023-04-25T04:58:49;9.30;74.00
18694;DHT22;9477;51.414;10.362;2023-04-25T05:00:52;9.00;74.50
18694;DHT22;9477;51.414;10.362;2023-04-25T05:02:55;9.00;75.00
18694;DHT22;9477;51.414;10.362;2023-04-25T05:04:58;9.00;75.20
18694;DHT22;9477;51.414;10.362;2023-04-25T05:07:01;9.20;75.30
18694;DHT22;9477;51.414;10.362;2023-04-25T05:09:04;9.20;75.80
18694;DHT22;9477;51.414;10.362;2023-04-25T05:11:07;9.20;76.20
18694;DHT22;9477;51.414;10.362;2023-04-25T05:13:11;8.80;77.30
18694;DHT22;9477;51.414;10.362;2023-04-25T05:15:14;8.80;78.00
18694;DHT22;9477;51.414;10.362;2023-04-25T05:17:17;9.00;78.20
18694;DHT22;9477;51.414;10.362;2023-04-25T05:19:20;8.90;78.20
18694;DHT22;9477;51.414;10.362;2023-04-25T05:21:22;8.90;78.50
18694;DHT22;9477;51.414;10.362;2023-04-25T05:23:25;9.10;78.70
18694;DHT22;9477;51.414;10.362;2023-04-25T05:25:29;9.00;78.80
18694;DHT22;9477;51.414;10.362;2023-04-25T05:27:32;9.00;79.00
18694;DHT22;9477;51.414;10.362;2023-04-25T05:29:36;8.80;79.00
18694;DHT22;9477;51.414;10.362;2023-04-25T05:31:39;8.80;79.20
18694;DHT22;9477;51.414;10.362;2023-04-25T05:33:45;9.00;79.60
18694;DHT22;9477;51.414;10.362;2023-04-25T05:35:48;9.20;79.30
18694;DHT22;9477;51.414;10.362;2023-04-25T05:37:51;9.10;79.20
18694;DHT22;9477;51.414;10.362;2023-04-25T05:39:54;8.90;79.20
18694;DHT22;9477;51.414;10.362;2023-04-25T05:41:57;9.00;80.10
18694;DHT22;9477;51.414;10.362;2023-04-25T05:44:00;9.00;79.90
18694;DHT22;9477;51.414;10.362;2023-04-25T05:46:05;9.10;79.90
18694;DHT22;9477;51.414;10.362;2023-04-25T05:48:08;9.10;79.90
18694;DHT22;9477;51.414;10.362;2023-04-25T05:50:11;9.10;79.70
18694;DHT22;9477;51.414;10.362;2023-04-25T05:52:13;8.60;80.30
18694;DHT22;9477;51.414;10.362;2023-04-25T05:54:16;8.40;81.20
18694;DHT22;9477;51.414;10.362;2023-04-25T05:56:20;8.70;81.70
18694;DHT22;9477;51.414;10.362;2023-04-25T05:58:23;8.80;81.80
18694;DHT22;9477;51.414;10.362;2023-04-25T06:00:27;8.60;82.20
18694;DHT22;9477;51.414;10.362;2023-04-25T06:02:31;8.80;82.30
18694;DHT22;9477;51.414;10.362;2023-04-25T06:04:34;8.80;82.30
18694;DHT22;9477;51.414;10.362;2023-04-25T06:06:37;9.10;82.00
18694;DHT22;9477;51.414;10.362;2023-04-25T06:08:40;8.80;81.80
18694;DHT22;9477;51.414;10.362;2023-04-25T06:10:44;8.80;82.10
18694;DHT22;9477;51.414;10.362;2023-04-25T06:12:47;8.80;82.80
18694;DHT22;9477;51.414;10.362;2023-04-25T06:14:50;8.90;82.90
18694;DHT22;9477;51.414;10.362;2023-04-25T06:16:53;8.90;83.00
18694;DHT22;9477;51.414;10.362;2023-04-25T06:18:57;9.00;83.10
18694;DHT22;9477;51.414;10.362;2023-04-25T06:21:00;9.20;83.00
18694;DHT22;9477;51.414;10.362;2023-04-25T06:23:03;9.40;82.90
18694;DHT22;9477;51.414;10.362;2023-04-25T06:25:06;9.40;82.60
18694;DHT22;9477;51.414;10.362;2023-04-25T06:27:09;9.00;82.40
18694;DHT22;9477;51.414;10.362;2023-04-25T06:29:12;8.90;82.40
18694;DHT22;9477;51.414;10.362;2023-04-25T06:31:15;8.80;83.00
18694;DHT22;9477;51.414;10.362;2023-04-25T06:33:18;9.00;83.30
18694;DHT22;9477;51.414;10.362;2023-04-25T06:35:23;9.10;83.50
18694;DHT22;9477;51.414;10.362;2023-04-25T06:37:26;8.70;83.10
18694;DHT22;9477;51.414;10.362;2023-04-25T06:39:30;9.00;83.00
18694;DHT22;9477;51.414;10.362;2023-04-25T06:41:33;8.70;83.50
18694;DHT22;9477;51.414;10.362;2023-04-25T06:43:36;9.10;84.20
18694;DHT22;9477;51.414;10.362;2023-04-25T06:45:39;8.90;83.70
18694;DHT22;9477;51.414;10.362;2023-04-25T06:47:42;9.00;84.10
18694;DHT22;9477;51.414;10.362;2023-04-25T06:49:45;8.90;84.40
18694;DHT22;9477;51.414;10.362;2023-04-25T06:51:49;9.00;85.00
18694;DHT22;9477;51.414;10.362;2023-04-25T06:53:52;8.90;83.50
18694;DHT22;9477;51.414;10.362;2023-04-25T06:55:54;8.90;83.70
18694;DHT22;9477;51.414;10.362;2023-04-25T06:57:57;8.90;84.30
18694;DHT22;9477;51.414;10.362;2023-04-25T07:00:00;8.90;85.20
18694;DHT22;9477;51.414;10.362;2023-04-25T07:02:03;9.00;84.50
18694;DHT22;9477;51.414;10.362;2023-04-25T07:04:06;8.80;83.80
18694;DHT22;9477;51.414;10.362;2023-04-25T07:06:09;8.80;84.00
18694;DHT22;9477;51.414;10.362;2023-04-25T07:08:13;8.90;84.20
18694;DHT22;9477;51.414;10.362;2023-04-25T07:10:16;9.30;83.90
18694;DHT22;9477;51.414;10.362;2023-04-25T07:12:19;9.40;82.20
18694;DHT22;9477;51.414;10.362;2023-04-25T07:14:22;9.10;81.50
18694;DHT22;9477;51.414;10.362;2023-04-25T07:16:25;9.50;81.80
18694;DHT22;9477;51.414;10.362;2023-04-25T07:18:28;9.50;82.10
18694;DHT22;9477;51.414;10.362;2023-04-25T07:20:31;9.40;81.10
18694;DHT22;9477;51.414;10.362;2023-04-25T07:22:34;9.10;80.50
18694;DHT22;9477;51.414;10.362;2023-04-25T07:24:38;9.10;81.30
18694;DHT22;9477;51.414;10.362;2023-04-25T07:26:41;9.00;81.10
18694;DHT22;9477;51.414;10.362;2023-04-25T07:28:45;8.80;80.40
18694;DHT22;9477;51.414;10.362;2023-04-25T07:30:51;9.10;81.40
18694;DHT22;9477;51.414;10.362;2023-04-25T07:32:54;8.90;80.80
18694;DHT22;9477;51.414;10.362;2023-04-25T07:34:57;9.00;80.70
18694;DHT22;9477;51.414;10.362;2023-04-25T07:37:00;9.20;81.10
18694;DHT22;9477;51.414;10.362;2023-04-25T07:39:03;9.20;80.60
18694;DHT22;9477;51.414;10.362;2023-04-25T07:41:07;9.30;80.50
18694;DHT22;9477;51.414;10.362;2023-04-25T07:43:10;9.30;79.50
18694;DHT22;9477;51.414;10.362;2023-04-25T07:45:16;9.40;79.80
18694;DHT22;9477;51.414;10.362;2023-04-25T07:47:19;9.60;79.60
18694;DHT22;9477;51.414;10.362;2023-04-25T07:49:22;9.40;78.50
18694;DHT22;9477;51.414;10.362;2023-04-25T07:51:25;9.10;78.80
18694;DHT22;9477;51.414;10.362;2023-04-25T07:53:28;9.10;79.40
18694;DHT22;9477;51.414;10.362;2023-04-25T07:55:30;9.10;79.90
18694;DHT22;9477;51.414;10.362;2023-04-25T07:57:35;8.40;79.90
18694;DHT22;9477;51.414;10.362;2023-04-25T07:59:39;8.60;80.70
18694;DHT22;9477;51.414;10.362;2023-04-25T08:01:41;8.80;81.40
18694;DHT22;9477;51.414;10.362;2023-04-25T08:03:44;9.00;82.00
18694;DHT22;9477;51.414;10.362;2023-04-25T08:05:48;9.40;81.40
18694;DHT22;9477;51.414;10.362;2023-04-25T08:07:50;9.30;80.50
18694;DHT22;9477;51.414;10.362;2023-04-25T08:09:54;9.60;80.70
18694;DHT22;9477;51.414;10.362;2023-04-25T08:11:56;9.60;80.10
18694;DHT22;9477;51.414;10.362;2023-04-25T08:14:01;9.40;78.80
18694;DHT22;9477;51.414;10.362;2023-04-25T08:16:04;9.20;77.30
18694;DHT22;9477;51.414;10.362;2023-04-25T08:18:07;9.20;76.50
18694;DHT22;9477;51.414;10.362;2023-04-25T08:20:11;8.70;75.90
18694;DHT22;9477;51.414;10.362;2023-04-25T08:22:15;8.90;77.50
18694;DHT22;9477;51.414;10.362;2023-04-25T08:24:17;9.30;78.10
18694;DHT22;9477;51.414;10.362;2023-04-25T08:26:20;9.50;77.80
18694;DHT22;9477;51.414;10.362;2023-04-25T08:28:23;9.20;78.20
18694;DHT22;9477;51.414;10.362;2023-04-25T08:30:28;9.30;79.80
18694;DHT22;9477;51.414;10.362;2023-04-25T08:32:31;9.40;79.40
18694;DHT22;9477;51.414;10.362;2023-04-25T08:34:35;9.70;79.40
18694;DHT22;9477;51.414;10.362;2023-04-25T08:36:40;9.80;79.20
18694;DHT22;9477;51.414;10.362;2023-04-25T08:38:43;10.20;78.00
18694;DHT22;9477;51.414;10.362;2023-04-25T08:40:49;9.70;75.70
18694;DHT22;9477;51.414;10.362;2023-04-25T08:42:53;9.70;75.80
18694;DHT22;9477;51.414;10.362;2023-04-25T08:44:57;9.40;77.30
18694;DHT22;9477;51.414;10.362;2023-04-25T08:47:04;9.70;77.80
18694;DHT22;9477;51.414;10.362;2023-04-25T08:49:08;10.00;76.10
18694;DHT22;9477;51.414;10.362;2023-04-25T08:51:16;10.00;74.80
18694;DHT22;9477;51.414;10.362;2023-04-25T08:53:27;9.50;75.70
18694;DHT22;9477;51.414;10.362;2023-04-25T08:55:30;9.40;75.50
18694;DHT22;9477;51.414;10.362;2023-04-25T08:57:34;10.00;75.80
18694;DHT22;9477;51.414;10.362;2023-04-25T08:59:39;9.90;76.20
18694;DHT22;9477;51.414;10.362;2023-04-25T09:01:42;10.20;74.40
18694;DHT22;9477;51.414;10.362;2023-04-25T09:03:46;10.90;75.50
18694;DHT22;9477;51.414;10.362;2023-04-25T09:05:51;11.30;73.20
18694;DHT22;9477;51.414;10.362;2023-04-25T09:07:55;11.60;73.40
18694;DHT22;9477;51.414;10.362;2023-04-25T09:09:58;11.30;71.20
18694;DHT22;9477;51.414;10.362;2023-04-25T09:12:04;11.20;71.60
18694;DHT22;9477;51.414;10.362;2023-04-25T09:14:12;10.70;70.40
18694;DHT22;9477;51.414;10.362;2023-04-25T09:16:15;10.70;71.80
18694;DHT22;9477;51.414;10.362;2023-04-25T09:18:24;11.10;73.60
18694;DHT22;9477;51.414;10.362;2023-04-25T09:20:41;11.20;72.80
18694;DHT22;9477;51.414;10.362;2023-04-25T09:23:02;11.10;71.70
18694;DHT22;9477;51.414;10.362;2023-04-25T09:25:09;11.00;70.50
18694;DHT22;9477;51.414;10.362;2023-04-25T09:27:18;11.00;70.60
18694;DHT22;9477;51.414;10.362;2023-04-25T09:29:29;10.80;70.80
18694;DHT22;9477;51.414;10.362;2023-04-25T09:31:33;10.60;71.00
18694;DHT22;9477;51.414;10.362;2023-04-25T09:33:36;11.10;72.10
18694;DHT22;9477;51.414;10.362;2023-04-25T09:35:44;11.60;71.80
18694;DHT22;9477;51.414;10.362;2023-04-25T09:37:47;11.70;69.20
18694;DHT22;9477;51.414;10.362;2023-04-25T09:39:52;12.30;70.50
18694;DHT22;9477;51.414;10.362;2023-04-25T09:41:56;12.50;69.80
18694;DHT22;9477;51.414;10.362;2023-04-25T09:43:59;11.80;66.70
18694;DHT22;9477;51.414;10.362;2023-04-25T09:46:08;12.20;68.10
18694;DHT22;9477;51.414;10.362;2023-04-25T09:48:12;11.90;67.40
18694;DHT22;9477;51.414;10.362;2023-04-25T09:50:16;11.90;67.90
18694;DHT22;9477;51.414;10.362;2023-04-25T09:52:23;12.40;68.90
18694;DHT22;9477;51.414;10.362;2023-04-25T09:54:27;11.50;63.80
18694;DHT22;9477;51.414;10.362;2023-04-25T09:56:31;11.10;64.80
18694;DHT22;9477;51.414;10.362;2023-04-25T09:58:39;11.00;64.60
18694;DHT22;9477;51.414;10.362;2023-04-25T10:00:42;11.30;66.40
18694;DHT22;9477;51.414;10.362;2023-04-25T10:02:47;10.60;65.70
18694;DHT22;9477;51.414;10.362;2023-04-25T10:04:52;11.00;66.90
18694;DHT22;9477;51.414;10.362;2023-04-25T10:06:57;10.90;67.00
18694;DHT22;9477;51.414;10.362;2023-04-25T10:09:02;11.10;68.40
18694;DHT22;9477;51.414;10.362;2023-04-25T10:11:07;11.20;68.80
18694;DHT22;9477;51.414;10.362;2023-04-25T10:13:11;10.90;68.30
18694;DHT22;9477;51.414;10.362;2023-04-25T10:15:16;10.70;68.60
18694;DHT22;9477;51.414;10.362;2023-04-25T10:17:19;10.60;67.30
18694;DHT22;9477;51.414;10.362;2023-04-25T10:19:23;10.40;64.70
18694;DHT22;9477;51.414;10.362;2023-04-25T10:21:28;10.30;65.40
18694;DHT22;9477;51.414;10.362;2023-04-25T10:23:34;10.50;65.60
18694;DHT22;9477;51.414;10.362;2023-04-25T10:25:41;10.70;66.20
18694;DHT22;9477;51.414;10.362;2023-04-25T10:27:45;11.40;67.90
18694;DHT22;9477;51.414;10.362;2023-04-25T10:30:00;11.70;65.90
18694;DHT22;9477;51.414;10.362;2023-04-25T10:32:06;11.50;64.10
18694;DHT22;9477;51.414;10.362;2023-04-25T10:34:10;11.70;64.20
18694;DHT22;9477;51.414;10.362;2023-04-25T10:36:14;11.80;63.70
18694;DHT22;9477;51.414;10.362;2023-04-25T10:38:18;12.10;64.50
18694;DHT22;9477;51.414;10.362;2023-04-25T10:40:22;12.00;62.00
18694;DHT22;9477;51.414;10.362;2023-04-25T10:42:26;11.90;62.10
18694;DHT22;9477;51.414;10.362;2023-04-25T10:44:31;11.10;62.10
18694;DHT22;9477;51.414;10.362;2023-04-25T10:46:34;11.20;63.50
18694;DHT22;9477;51.414;10.362;2023-04-25T10:48:44;10.70;61.00
18694;DHT22;9477;51.414;10.362;2023-04-25T10:50:48;10.30;62.10
18694;DHT22;9477;51.414;10.362;2023-04-25T10:52:51;10.30;63.30
18694;DHT22;9477;51.414;10.362;2023-04-25T10:54:55;10.40;62.80
18694;DHT22;9477;51.414;10.362;2023-04-25T10:56:58;10.60;62.40
18694;DHT22;9477;51.414;10.362;2023-04-25T10:59:08;10.70;59.90
18694;DHT22;9477;51.414;10.362;2023-04-25T11:01:12;10.40;58.60
18694;DHT22;9477;51.414;10.362;2023-04-25T11:03:16;10.70;59.70
18694;DHT22;9477;51.414;10.362;2023-04-25T11:05:22;10.60;59.50
18694;DHT22;9477;51.414;10.362;2023-04-25T11:07:32;10.30;57.60
18694;DHT22;9477;51.414;10.362;2023-04-25T11:09:39;10.00;55.40
18694;DHT22;9477;51.414;10.362;2023-04-25T11:11:42;10.50;57.70
18694;DHT22;9477;51.414;10.362;2023-04-25T11:13:48;10.40;55.80
18694;DHT22;9477;51.414;10.362;2023-04-25T11:15:53;10.60;56.30
18694;DHT22;9477;51.414;10.362;2023-04-25T11:18:16;10.40;56.20
18694;DHT22;9477;51.414;10.362;2023-04-25T11:20:20;11.00;56.60
18694;DHT22;9477;51.414;10.362;2023-04-25T11:22:23;11.60;57.60
18694;DHT22;9477;51.414;10.362;2023-04-25T11:24:27;11.30;54.10
18694;DHT22;9477;51.414;10.362;2023-04-25T11:26:30;11.40;54.90
18694;DHT22;9477;51.414;10.362;2023-04-25T11:28:33;11.20;55.30
18694;DHT22;9477;51.414;10.362;2023-04-25T11:30:37;11.40;55.80
18694;DHT22;9477;51.414;10.362;2023-04-25T11:32:42;11.30;55.90
18694;DHT22;9477;51.414;10.362;2023-04-25T11:34:45;11.20;56.00
18694;DHT22;9477;51.414;10.362;2023-04-25T11:36:48;11.60;56.20
18694;DHT22;9477;51.414;10.362;2023-04-25T11:38:50;11.50;56.00
18694;DHT22;9477;51.414;10.362;2023-04-25T11:40:55;11.30;55.20
18694;DHT22;9477;51.414;10.362;2023-04-25T11:43:00;11.30;56.10
18694;DHT22;9477;51.414;10.362;2023-04-25T11:45:05;11.50;56.50
18694;DHT22;9477;51.414;10.362;2023-04-25T11:47:08;11.90;57.60
18694;DHT22;9477;51.414;10.362;2023-04-25T11:49:13;11.80;56.50
18694;DHT22;9477;51.414;10.362;2023-04-25T11:51:16;11.70;56.50
18694;DHT22;9477;51.414;10.362;2023-04-25T11:53:19;11.70;55.90
18694;DHT22;9477;51.414;10.362;2023-04-25T11:55:22;11.70;55.60
18694;DHT22;9477;51.414;10.362;2023-04-25T11:57:25;12.00;57.20
18694;DHT22;9477;51.414;10.362;2023-04-25T11:59:28;12.30;56.60
18694;DHT22;9477;51.414;10.362;2023-04-25T12:01:31;12.10;54.10
18694;DHT22;9477;51.414;10.362;2023-04-25T12:03:45;11.90;53.80
18694;DHT22;9477;51.414;10.362;2023-04-25T12:05:50;11.60;53.10
18694;DHT22;9477;51.414;10.362;2023-04-25T12:07:53;11.90;54.70
18694;DHT22;9477;51.414;10.362;2023-04-25T12:09:56;12.20;54.60
18694;DHT22;9477;51.414;10.362;2023-04-25T12:12:00;12.20;53.70
18694;DHT22;9477;51.414;10.362;2023-04-25T12:14:04;12.80;55.10
18694;DHT22;9477;51.414;10.362;2023-04-25T12:16:08;13.00;54.90
18694;DHT22;9477;51.414;10.362;2023-04-25T12:18:10;13.30;53.90
18694;DHT22;9477;51.414;10.362;2023-04-25T12:20:15;13.10;52.50
18694;DHT22;9477;51.414;10.362;2023-04-25T12:22:23;13.10;52.40
18694;DHT22;9477;51.414;10.362;2023-04-25T12:24:27;12.70;52.00
18694;DHT22;9477;51.414;10.362;2023-04-25T12:26:48;12.40;53.00
18694;DHT22;9477;51.414;10.362;2023-04-25T12:28:51;12.60;54.90
18694;DHT22;9477;51.414;10.362;2023-04-25T12:30:56;12.00;51.60
18694;DHT22;9477;51.414;10.362;2023-04-25T12:33:00;11.90;51.50
18694;DHT22;9477;51.414;10.362;2023-04-25T12:35:04;12.00;53.00
18694;DHT22;9477;51.414;10.362;2023-04-25T12:37:08;11.20;51.50
18694;DHT22;9477;51.414;10.362;2023-04-25T12:39:15;11.10;52.30
18694;DHT22;9477;51.414;10.362;2023-04-25T12:41:19;10.30;52.80
18694;DHT22;9477;51.414;10.362;2023-04-25T12:43:22;10.90;54.60
18694;DHT22;9477;51.414;10.362;2023-04-25T12:45:25;10.50;54.20
18694;DHT22;9477;51.414;10.362;2023-04-25T12:47:29;10.20;54.60
18694;DHT22;9477;51.414;10.362;2023-04-25T12:49:32;10.70;55.00
18694;DHT22;9477;51.414;10.362;2023-04-25T12:51:35;10.90;55.90
18694;DHT22;9477;51.414;10.362;2023-04-25T12:53:38;11.50;56.50
18694;DHT22;9477;51.414;10.362;2023-04-25T12:55:43;12.10;55.60
18694;DHT22;9477;51.414;10.362;2023-04-25T12:57:48;12.10;54.00
18694;DHT22;9477;51.414;10.362;2023-04-25T12:59:52;12.00;53.50
18694;DHT22;9477;51.414;10.362;2023-04-25T13:01:57;12.30;53.70
18694;DHT22;9477;51.414;10.362;2023-04-25T13:04:00;12.20;53.80
18694;DHT22;9477;51.414;10.362;2023-04-25T13:06:03;12.00;53.10
18694;DHT22;9477;51.414;10.362;2023-04-25T13:08:06;12.30;53.70
18694;DHT22;9477;51.414;10.362;2023-04-25T13:10:10;11.90;52.40
18694;DHT22;9477;51.414;10.362;2023-04-25T13:12:14;11.80;53.00